sensor_id;sensor_type;location;lat;lon;timestamp;pressure;altitude;pressure_sealevel;temperature;humidity
58245;BME280;44550;43.864;25.986;2023-05-29T00:01:54;100894.78;;;18.59;100.00
58245;BME280;44550;43.864;25.986;2023-05-29T00:05:55;100906.19;;;18.62;100.00
58245;BME280;44550;43.864;25.986;2023-05-29T00:09:54;100905.94;;;18.73;100.00
58245;BME280;44550;43.864;25.986;2023-05-29T00:13:54;100915.84;;;18.65;100.00
58245;BME280;44550;43.864;25.986;2023-05-29T00:17:53;100910.78;;;18.15;100.00
58245;BME280;44550;43.864;25.986;2023-05-29T00:21:55;100909.59;;;18.28;100.00
58245;BME280;44550;43.864;25.986;2023-05-29T00:25:54;100915.50;;;18.40;100.00
58245;BME280;44550;43.864;25.986;2023-05-29T00:29:53;100918.47;;;18.26;100.00
58245;BME280;44550;43.864;25.986;2023-05-29T00:33:53;100920.31;;;18.22;100.00
58245;BME280;44550;43.864;25.986;2023-05-29T00:37:54;100911.44;;;18.25;100.00
58245;BME280;44550;43.864;25.986;2023-05-29T00:41:54;100912.06;;;18.38;100.00
58245;BME280;44550;43.864;25.986;2023-05-29T00:45:54;100919.69;;;18.51;100.00
58245;BME280;44550;43.864;25.986;2023-05-29T00:49:53;100911.41;;;18.65;100.00
58245;BME280;44550;43.864;25.986;2023-05-29T00:53:55;100914.41;;;18.87;100.00
58245;BME280;44550;43.864;25.986;2023-05-29T00:57:57;100916.69;;;19.04;100.00
58245;BME280;44550;43.864;25.986;2023-05-29T01:01:57;100921.34;;;18.93;100.00
58245;BME280;44550;43.864;25.986;2023-05-29T01:05:57;100923.91;;;18.97;100.00
58245;BME280;44550;43.864;25.986;2023-05-29T01:09:59;100923.50;;;19.13;100.00
58245;BME280;44550;43.864;25.986;2023-05-29T01:14:00;100927.00;;;19.13;100.00
58245;BME280;44550;43.864;25.986;2023-05-29T01:18:12;100930.38;;;19.20;100.00
58245;BME280;44550;43.864;25.986;2023-05-29T01:22:20;100922.69;;;19.11;100.00
58245;BME280;44550;43.864;25.986;2023-05-29T01:30:44;100921.78;;;19.10;100.00
58245;BME280;44550;43.864;25.986;2023-05-29T01:34:44;100913.47;;;18.91;100.00
58245;BME280;44550;43.864;25.986;2023-05-29T01:38:44;100907.53;;;18.80;100.00
58245;BME280;44550;43.864;25.986;2023-05-29T01:42:44;100908.09;;;18.93;100.00
58245;BME280;44550;43.864;25.986;2023-05-29T01:46:51;100891.06;;;19.03;100.00
58245;BME280;44550;43.864;25.986;2023-05-29T01:50:51;100892.75;;;19.06;100.00
58245;BME280;44550;43.864;25.986;2023-05-29T01:54:53;100883.44;;;18.91;100.00
58245;BME280;44550;43.864;25.986;2023-05-29T01:58:54;100884.84;;;18.68;100.00
58245;BME280;44550;43.864;25.986;2023-05-29T02:02:56;100878.75;;;18.65;100.00
58245;BME280;44550;43.864;25.986;2023-05-29T02:06:56;100875.59;;;18.49;100.00
58245;BME280;44550;43.864;25.986;2023-05-29T02:10:56;100886.41;;;18.40;100.00
58245;BME280;44550;43.864;25.986;2023-05-29T02:14:58;100876.25;;;18.20;100.00
58245;BME280;44550;43.864;25.986;2023-05-29T02:19:03;100880.81;;;18.15;100.00
58245;BME280;44550;43.864;25.986;2023-05-29T02:23:03;100893.44;;;18.02;100.00
58245;BME280;44550;43.864;25.986;2023-05-29T02:27:03;100887.84;;;17.71;100.00
58245;BME280;44550;43.864;25.986;2023-05-29T02:31:03;100893.53;;;17.51;100.00
58245;BME280;44550;43.864;25.986;2023-05-29T02:35:08;100899.78;;;17.47;100.00
58245;BME280;44550;43.864;25.986;2023-05-29T02:39:10;100909.91;;;17.70;100.00
58245;BME280;44550;43.864;25.986;2023-05-29T02:43:12;100911.28;;;17.91;100.00
58245;BME280;44550;43.864;25.986;2023-05-29T02:47:17;100912.09;;;17.94;100.00
58245;BME280;44550;43.864;25.986;2023-05-29T02:51:19;100916.38;;;18.01;100.00
58245;BME280;44550;43.864;25.986;2023-05-29T02:55:19;100908.25;;;18.09;100.00
58245;BME280;44550;43.864;25.986;2023-05-29T02:59:19;100908.81;;;18.25;100.00
58245;BME280;44550;43.864;25.986;2023-05-29T03:03:19;100912.06;;;18.36;100.00
58245;BME280;44550;43.864;25.986;2023-05-29T03:07:24;100915.56;;;18.38;100.00
58245;BME280;44550;43.864;25.986;2023-05-29T03:11:25;100909.03;;;18.53;100.00
58245;BME280;44550;43.864;25.986;2023-05-29T03:15:25;100909.91;;;18.53;100.00
58245;BME280;44550;43.864;25.986;2023-05-29T03:19:25;100912.34;;;18.63;100.00
58245;BME280;44550;43.864;25.986;2023-05-29T03:23:32;100916.72;;;18.64;100.00
58245;BME280;44550;43.864;25.986;2023-05-29T03:27:32;100911.28;;;18.70;100.00
58245;BME280;44550;43.864;25.986;2023-05-29T03:31:39;100913.34;;;18.57;100.00
58245;BME280;44550;43.864;25.986;2023-05-29T03:35:40;100911.50;;;18.61;100.00
58245;BME280;44550;43.864;25.986;2023-05-29T03:39:45;100915.72;;;18.69;100.00
58245;BME280;44550;43.864;25.986;2023-05-29T03:43:45;100906.59;;;18.83;100.00
58245;BME280;44550;43.864;25.986;2023-05-29T03:47:52;100917.84;;;18.92;100.00
58245;BME280;44550;43.864;25.986;2023-05-29T03:51:52;100822.25;;;18.28;100.00
58245;BME280;44550;43.864;25.986;2023-05-29T03:55:55;100924.41;;;18.77;100.00
58245;BME280;44550;43.864;25.986;2023-05-29T03:59:55;100930.66;;;18.73;100.00
58245;BME280;44550;43.864;25.986;2023-05-29T04:03:54;100934.66;;;18.91;100.00
58245;BME280;44550;43.864;25.986;2023-05-29T04:07:54;100936.16;;;19.01;100.00
58245;BME280;44550;43.864;25.986;2023-05-29T04:12:13;100933.72;;;18.92;100.00
58245;BME280;44550;43.864;25.986;2023-05-29T04:16:14;100936.75;;;18.77;100.00
58245;BME280;44550;43.864;25.986;2023-05-29T04:20:22;100942.16;;;18.72;100.00
58245;BME280;44550;43.864;25.986;2023-05-29T04:24:26;100943.53;;;18.50;100.00
58245;BME280;44550;43.864;25.986;2023-05-29T04:28:27;100948.50;;;18.64;100.00
58245;BME280;44550;43.864;25.986;2023-05-29T04:32:27;100951.69;;;18.80;100.00
58245;BME280;44550;43.864;25.986;2023-05-29T04:36:26;100953.53;;;18.77;100.00
58245;BME280;44550;43.864;25.986;2023-05-29T04:40:28;100954.53;;;18.70;100.00
58245;BME280;44550;43.864;25.986;2023-05-29T04:44:31;100958.97;;;18.70;100.00
58245;BME280;44550;43.864;25.986;2023-05-29T04:48:35;100947.09;;;18.49;100.00
58245;BME280;44550;43.864;25.986;2023-05-29T04:52:38;100958.13;;;18.29;100.00
58245;BME280;44550;43.864;25.986;2023-05-29T04:56:39;100957.22;;;17.88;100.00
58245;BME280;44550;43.864;25.986;2023-05-29T05:00:41;100958.22;;;17.81;100.00
58245;BME280;44550;43.864;25.986;2023-05-29T05:04:41;100961.38;;;18.00;100.00
58245;BME280;44550;43.864;25.986;2023-05-29T05:08:42;100972.53;;;18.16;100.00
58245;BME280;44550;43.864;25.986;2023-05-29T05:12:41;100969.50;;;18.33;100.00
58245;BME280;44550;43.864;25.986;2023-05-29T05:16:45;100972.53;;;18.16;100.00
58245;BME280;44550;43.864;25.986;2023-05-29T05:20:44;100973.88;;;18.35;100.00
58245;BME280;44550;43.864;25.986;2023-05-29T05:24:44;100971.03;;;18.44;100.00
58245;BME280;44550;43.864;25.986;2023-05-29T05:28:43;100972.22;;;18.29;100.00
58245;BME280;44550;43.864;25.986;2023-05-29T05:32:45;100965.03;;;18.36;100.00
58245;BME280;44550;43.864;25.986;2023-05-29T05:36:45;100955.50;;;18.68;100.00
58245;BME280;44550;43.864;25.986;2023-05-29T05:40:44;100963.22;;;18.78;100.00
58245;BME280;44550;43.864;25.986;2023-05-29T05:44:44;100967.63;;;19.14;100.00
58245;BME280;44550;43.864;25.986;2023-05-29T05:48:47;100964.63;;;19.29;100.00
58245;BME280;44550;43.864;25.986;2023-05-29T05:52:47;100959.72;;;19.48;100.00
58245;BME280;44550;43.864;25.986;2023-05-29T05:56:48;100961.56;;;19.44;100.00
58245;BME280;44550;43.864;25.986;2023-05-29T06:00:47;100963.16;;;19.52;100.00
58245;BME280;44550;43.864;25.986;2023-05-29T06:04:58;100968.28;;;19.58;100.00
58245;BME280;44550;43.864;25.986;2023-05-29T06:09:04;100973.28;;;19.36;100.00
58245;BME280;44550;43.864;25.986;2023-05-29T06:13:11;100972.69;;;19.59;100.00
58245;BME280;44550;43.864;25.986;2023-05-29T06:17:11;100967.09;;;19.69;100.00
58245;BME280;44550;43.864;25.986;2023-05-29T06:21:20;100983.69;;;20.10;100.00
58245;BME280;44550;43.864;25.986;2023-05-29T06:25:23;100979.94;;;20.16;100.00
58245;BME280;44550;43.864;25.986;2023-05-29T06:29:31;100977.59;;;20.07;100.00
58245;BME280;44550;43.864;25.986;2023-05-29T06:33:30;100992.53;;;20.40;100.00
58245;BME280;44550;43.864;25.986;2023-05-29T06:37:34;100989.72;;;20.75;100.00
58245;BME280;44550;43.864;25.986;2023-05-29T06:41:43;100988.72;;;21.07;100.00
58245;BME280;44550;43.864;25.986;2023-05-29T06:55:11;100976.53;;;20.72;100.00
58245;BME280;44550;43.864;25.986;2023-05-29T06:59:11;100970.09;;;20.79;100.00
58245;BME280;44550;43.864;25.986;2023-05-29T07:03:11;100972.38;;;20.91;100.00
58245;BME280;44550;43.864;25.986;2023-05-29T07:07:14;100961.91;;;20.58;100.00
58245;BME280;44550;43.864;25.986;2023-05-29T07:11:15;100965.03;;;20.71;100.00
58245;BME280;44550;43.864;25.986;2023-05-29T07:15:18;100974.31;;;20.86;100.00
58245;BME280;44550;43.864;25.986;2023-05-29T07:19:18;100979.31;;;20.97;100.00
58245;BME280;44550;43.864;25.986;2023-05-29T07:23:18;100976.56;;;20.98;100.00
58245;BME280;44550;43.864;25.986;2023-05-29T07:27:20;100968.72;;;21.22;100.00
58245;BME280;44550;43.864;25.986;2023-05-29T07:31:19;100968.47;;;21.29;100.00
58245;BME280;44550;43.864;25.986;2023-05-29T07:35:19;100981.66;;;21.32;100.00
58245;BME280;44550;43.864;25.986;2023-05-29T07:39:18;100984.75;;;21.72;100.00
58245;BME280;44550;43.864;25.986;2023-05-29T07:43:20;100988.28;;;21.72;100.00
58245;BME280;44550;43.864;25.986;2023-05-29T07:47:26;100995.66;;;21.64;100.00
58245;BME280;44550;43.864;25.986;2023-05-29T07:51:25;101000.63;;;21.48;100.00
58245;BME280;44550;43.864;25.986;2023-05-29T07:55:25;101002.00;;;21.33;100.00
58245;BME280;44550;43.864;25.986;2023-05-29T07:59:27;100992.41;;;21.56;100.00
58245;BME280;44550;43.864;25.986;2023-05-29T08:03:27;100999.97;;;21.42;100.00
58245;BME280;44550;43.864;25.986;2023-05-29T08:07:34;101000.09;;;21.39;100.00
58245;BME280;44550;43.864;25.986;2023-05-29T08:12:09;100992.97;;;21.66;100.00
58245;BME280;44550;43.864;25.986;2023-05-29T08:16:36;101004.47;;;22.15;100.00
58245;BME280;44550;43.864;25.986;2023-05-29T08:21:04;100987.34;;;22.23;100.00
58245;BME280;44550;43.864;25.986;2023-05-29T08:35:49;100967.59;;;22.96;96.44
58245;BME280;44550;43.864;25.986;2023-05-29T08:40:28;100964.25;;;23.13;97.42
58245;BME280;44550;43.864;25.986;2023-05-29T08:50:09;100964.97;;;23.17;96.41
58245;BME280;44550;43.864;25.986;2023-05-29T08:54:32;100972.75;;;23.64;92.69
58245;BME280;44550;43.864;25.986;2023-05-29T08:59:17;100968.13;;;23.47;93.95
58245;BME280;44550;43.864;25.986;2023-05-29T09:03:21;100960.19;;;23.66;89.63
58245;BME280;44550;43.864;25.986;2023-05-29T09:07:24;100961.88;;;23.48;90.62
58245;BME280;44550;43.864;25.986;2023-05-29T09:11:35;100959.47;;;23.62;89.47
58245;BME280;44550;43.864;25.986;2023-05-29T09:15:56;100953.97;;;23.87;87.39
58245;BME280;44550;43.864;25.986;2023-05-29T09:20:05;100963.06;;;24.02;86.09
58245;BME280;44550;43.864;25.986;2023-05-29T09:24:20;100950.78;;;23.98;85.13
58245;BME280;44550;43.864;25.986;2023-05-29T09:28:26;100943.84;;;24.13;84.04
58245;BME280;44550;43.864;25.986;2023-05-29T09:33:03;100941.00;;;24.18;85.76
58245;BME280;44550;43.864;25.986;2023-05-29T09:37:07;100934.63;;;24.01;83.40
58245;BME280;44550;43.864;25.986;2023-05-29T09:41:07;100936.25;;;23.85;78.55
58245;BME280;44550;43.864;25.986;2023-05-29T09:45:21;100928.13;;;23.88;80.67
58245;BME280;44550;43.864;25.986;2023-05-29T09:49:27;100933.44;;;24.07;81.53
58245;BME280;44550;43.864;25.986;2023-05-29T09:53:29;100929.00;;;24.07;79.24
58245;BME280;44550;43.864;25.986;2023-05-29T09:57:29;100920.38;;;24.20;79.97
58245;BME280;44550;43.864;25.986;2023-05-29T10:01:32;100918.53;;;24.22;78.95
58245;BME280;44550;43.864;25.986;2023-05-29T10:05:37;100909.56;;;24.23;80.53
58245;BME280;44550;43.864;25.986;2023-05-29T10:09:45;100912.44;;;24.37;80.80
58245;BME280;44550;43.864;25.986;2023-05-29T10:13:53;100909.06;;;24.14;81.17
58245;BME280;44550;43.864;25.986;2023-05-29T10:18:02;100913.47;;;24.15;83.87
58245;BME280;44550;43.864;25.986;2023-05-29T10:22:03;100904.72;;;24.50;81.52
58245;BME280;44550;43.864;25.986;2023-05-29T10:26:07;100906.75;;;24.26;83.67
58245;BME280;44550;43.864;25.986;2023-05-29T10:30:15;100904.94;;;24.26;80.10
58245;BME280;44550;43.864;25.986;2023-05-29T10:34:28;100903.22;;;24.06;82.68
58245;BME280;44550;43.864;25.986;2023-05-29T10:38:28;100890.22;;;24.18;83.04
58245;BME280;44550;43.864;25.986;2023-05-29T10:42:40;100900.91;;;24.55;81.66
58245;BME280;44550;43.864;25.986;2023-05-29T10:47:01;100887.66;;;24.71;80.25
58245;BME280;44550;43.864;25.986;2023-05-29T10:51:23;100894.03;;;24.50;82.03
58245;BME280;44550;43.864;25.986;2023-05-29T10:55:28;100891.22;;;24.53;80.79
58245;BME280;44550;43.864;25.986;2023-05-29T10:59:44;100882.63;;;24.27;82.10
58245;BME280;44550;43.864;25.986;2023-05-29T11:03:44;100880.66;;;24.50;81.33
58245;BME280;44550;43.864;25.986;2023-05-29T11:07:53;100873.69;;;24.47;82.13
58245;BME280;44550;43.864;25.986;2023-05-29T11:16:11;100859.81;;;24.93;79.13
58245;BME280;44550;43.864;25.986;2023-05-29T11:20:27;100861.00;;;25.22;77.13
58245;BME280;44550;43.864;25.986;2023-05-29T11:24:32;100856.53;;;25.40;76.90
58245;BME280;44550;43.864;25.986;2023-05-29T11:28:36;100863.63;;;25.23;73.36
58245;BME280;44550;43.864;25.986;2023-05-29T11:32:39;100872.88;;;25.51;74.16
58245;BME280;44550;43.864;25.986;2023-05-29T11:36:56;100859.22;;;25.55;76.85
58245;BME280;44550;43.864;25.986;2023-05-29T11:41:00;100841.44;;;25.54;74.39
58245;BME280;44550;43.864;25.986;2023-05-29T11:45:11;100856.31;;;25.43;74.27
58245;BME280;44550;43.864;25.986;2023-05-29T11:49:27;100858.34;;;25.22;77.02
58245;BME280;44550;43.864;25.986;2023-05-29T11:58:05;100837.19;;;25.50;76.23
58245;BME280;44550;43.864;25.986;2023-05-29T12:02:17;100840.09;;;25.30;72.28
58245;BME280;44550;43.864;25.986;2023-05-29T12:06:47;100823.94;;;25.31;73.92
58245;BME280;44550;43.864;25.986;2023-05-29T12:10:57;100829.16;;;25.50;73.94
58245;BME280;44550;43.864;25.986;2023-05-29T12:19:57;100821.41;;;25.62;72.18
58245;BME280;44550;43.864;25.986;2023-05-29T12:23:57;100812.38;;;25.96;73.06
58245;BME280;44550;43.864;25.986;2023-05-29T12:28:01;100814.91;;;25.83;70.94
58245;BME280;44550;43.864;25.986;2023-05-29T12:32:01;100819.03;;;25.89;72.22
58245;BME280;44550;43.864;25.986;2023-05-29T12:36:06;100808.88;;;25.46;73.73
58245;BME280;44550;43.864;25.986;2023-05-29T12:40:39;100807.22;;;25.26;77.24
58245;BME280;44550;43.864;25.986;2023-05-29T12:44:44;100816.16;;;25.27;75.77
58245;BME280;44550;43.864;25.986;2023-05-29T12:49:22;100812.84;;;25.22;78.11
58245;BME280;44550;43.864;25.986;2023-05-29T12:53:40;100817.56;;;25.34;76.23
58245;BME280;44550;43.864;25.986;2023-05-29T12:58:06;100812.34;;;24.96;77.95
58245;BME280;44550;43.864;25.986;2023-05-29T13:07:32;100802.75;;;25.09;79.69
58245;BME280;44550;43.864;25.986;2023-05-29T13:11:53;100810.88;;;25.25;79.29
58245;BME280;44550;43.864;25.986;2023-05-29T13:21:24;100811.59;;;25.12;78.62
58245;BME280;44550;43.864;25.986;2023-05-29T13:26:51;100813.38;;;25.11;72.93
58245;BME280;44550;43.864;25.986;2023-05-29T13:30:48;100806.34;;;25.43;73.22
58245;BME280;44550;43.864;25.986;2023-05-29T13:34:59;100789.47;;;25.74;70.38
58245;BME280;44550;43.864;25.986;2023-05-29T13:39:40;100794.03;;;25.57;70.98
58245;BME280;44550;43.864;25.986;2023-05-29T13:43:43;100825.56;;;25.67;76.84
58245;BME280;44550;43.864;25.986;2023-05-29T13:47:44;100837.41;;;23.27;100.00
58245;BME280;44550;43.864;25.986;2023-05-29T13:51:44;100828.53;;;21.50;100.00
58245;BME280;44550;43.864;25.986;2023-05-29T13:55:44;100822.59;;;20.67;100.00
58245;BME280;44550;43.864;25.986;2023-05-29T13:59:43;100802.41;;;20.33;100.00
58245;BME280;44550;43.864;25.986;2023-05-29T14:03:45;100812.13;;;20.34;100.00
58245;BME280;44550;43.864;25.986;2023-05-29T14:07:45;100818.69;;;20.23;100.00
58245;BME280;44550;43.864;25.986;2023-05-29T14:11:44;100806.06;;;20.29;100.00
58245;BME280;44550;43.864;25.986;2023-05-29T14:15:43;100813.53;;;20.18;100.00
58245;BME280;44550;43.864;25.986;2023-05-29T14:19:44;100810.59;;;20.27;100.00
58245;BME280;44550;43.864;25.986;2023-05-29T14:23:44;100812.72;;;20.42;100.00
58245;BME280;44550;43.864;25.986;2023-05-29T14:27:43;100806.06;;;20.29;100.00
58245;BME280;44550;43.864;25.986;2023-05-29T14:31:43;100805.00;;;20.63;100.00
58245;BME280;44550;43.864;25.986;2023-05-29T14:35:44;100803.03;;;20.41;100.00
58245;BME280;44550;43.864;25.986;2023-05-29T14:39:43;100810.44;;;20.60;100.00
58245;BME280;44550;43.864;25.986;2023-05-29T14:43:44;100805.16;;;20.58;100.00
58245;BME280;44550;43.864;25.986;2023-05-29T14:47:44;100800.47;;;20.67;100.00
58245;BME280;44550;43.864;25.986;2023-05-29T14:51:48;100804.44;;;20.53;100.00
58245;BME280;44550;43.864;25.986;2023-05-29T14:55:48;100809.09;;;20.73;100.00
58245;BME280;44550;43.864;25.986;2023-05-29T14:59:48;100816.31;;;20.95;100.00
58245;BME280;44550;43.864;25.986;2023-05-29T15:03:48;100809.84;;;21.27;100.00
58245;BME280;44550;43.864;25.986;2023-05-29T15:07:50;100813.88;;;21.39;100.00
58245;BME280;44550;43.864;25.986;2023-05-29T15:11:51;100820.25;;;21.58;100.00
58245;BME280;44550;43.864;25.986;2023-05-29T15:15:51;100821.28;;;21.77;100.00
58245;BME280;44550;43.864;25.986;2023-05-29T15:19:55;100823.53;;;21.88;100.00
58245;BME280;44550;43.864;25.986;2023-05-29T15:23:59;100833.28;;;21.89;100.00
58245;BME280;44550;43.864;25.986;2023-05-29T15:28:00;100844.72;;;21.68;100.00
58245;BME280;44550;43.864;25.986;2023-05-29T15:31:59;100838.75;;;21.85;100.00
58245;BME280;44550;43.864;25.986;2023-05-29T15:35:59;100856.69;;;22.03;100.00
58245;BME280;44550;43.864;25.986;2023-05-29T15:40:01;100850.78;;;21.71;100.00
58245;BME280;44550;43.864;25.986;2023-05-29T15:44:00;100854.63;;;21.64;100.00
58245;BME280;44550;43.864;25.986;2023-05-29T15:48:10;100860.06;;;21.61;100.00
58245;BME280;44550;43.864;25.986;2023-05-29T15:52:09;100855.97;;;21.52;100.00
58245;BME280;44550;43.864;25.986;2023-05-29T15:56:15;100855.72;;;21.33;100.00
58245;BME280;44550;43.864;25.986;2023-05-29T16:00:28;100850.78;;;21.23;100.00
58245;BME280;44550;43.864;25.986;2023-05-29T16:04:28;100844.31;;;21.55;100.00
58245;BME280;44550;43.864;25.986;2023-05-29T16:08:28;100849.00;;;21.72;100.00
58245;BME280;44550;43.864;25.986;2023-05-29T16:12:30;100846.59;;;21.89;100.00
58245;BME280;44550;43.864;25.986;2023-05-29T16:16:30;100847.88;;;21.79;100.00
58245;BME280;44550;43.864;25.986;2023-05-29T16:20:30;100849.13;;;21.92;100.00
58245;BME280;44550;43.864;25.986;2023-05-29T16:24:30;100843.63;;;21.97;100.00
58245;BME280;44550;43.864;25.986;2023-05-29T16:28:32;100856.19;;;22.17;100.00
58245;BME280;44550;43.864;25.986;2023-05-29T16:32:31;100849.81;;;22.21;98.15
58245;BME280;44550;43.864;25.986;2023-05-29T16:36:31;100858.94;;;22.15;100.00
58245;BME280;44550;43.864;25.986;2023-05-29T16:40:31;100861.66;;;22.36;99.09
58245;BME280;44550;43.864;25.986;2023-05-29T16:44:32;100861.25;;;22.45;100.00
58245;BME280;44550;43.864;25.986;2023-05-29T16:48:32;100864.16;;;22.83;98.92
58245;BME280;44550;43.864;25.986;2023-05-29T16:52:35;100865.53;;;23.13;97.42
58245;BME280;44550;43.864;25.986;2023-05-29T16:56:35;100871.81;;;23.33;97.92
58245;BME280;44550;43.864;25.986;2023-05-29T17:00:37;100879.81;;;23.33;97.19
58245;BME280;44550;43.864;25.986;2023-05-29T17:04:36;100873.47;;;23.35;97.64
58245;BME280;44550;43.864;25.986;2023-05-29T17:08:36;100875.31;;;23.54;96.69
58245;BME280;44550;43.864;25.986;2023-05-29T17:12:35;100884.50;;;23.67;95.69
58245;BME280;44550;43.864;25.986;2023-05-29T17:16:38;100886.16;;;23.90;91.58
58245;BME280;44550;43.864;25.986;2023-05-29T17:20:37;100885.16;;;23.92;91.67
58245;BME280;44550;43.864;25.986;2023-05-29T17:24:37;100887.38;;;23.83;92.84
58245;BME280;44550;43.864;25.986;2023-05-29T17:28:36;100892.28;;;23.32;100.00
58245;BME280;44550;43.864;25.986;2023-05-29T17:32:38;100885.25;;;22.67;100.00
58245;BME280;44550;43.864;25.986;2023-05-29T17:36:37;100892.16;;;22.28;100.00
58245;BME280;44550;43.864;25.986;2023-05-29T17:40:37;100901.75;;;22.09;100.00
58245;BME280;44550;43.864;25.986;2023-05-29T17:44:36;100895.91;;;21.99;100.00
58245;BME280;44550;43.864;25.986;2023-05-29T17:48:38;100906.13;;;21.87;100.00
58245;BME280;44550;43.864;25.986;2023-05-29T17:52:38;100909.03;;;21.80;100.00
58245;BME280;44550;43.864;25.986;2023-05-29T17:56:37;100917.34;;;21.95;100.00
58245;BME280;44550;43.864;25.986;2023-05-29T18:00:37;100919.63;;;21.82;100.00
58245;BME280;44550;43.864;25.986;2023-05-29T18:04:39;100925.09;;;21.77;100.00
58245;BME280;44550;43.864;25.986;2023-05-29T18:08:40;100927.25;;;21.91;100.00
58245;BME280;44550;43.864;25.986;2023-05-29T18:12:41;100923.03;;;21.86;100.00
58245;BME280;44550;43.864;25.986;2023-05-29T18:16:43;100933.56;;;21.89;100.00
58245;BME280;44550;43.864;25.986;2023-05-29T18:20:44;100940.09;;;21.80;100.00
58245;BME280;44550;43.864;25.986;2023-05-29T18:24:45;100943.91;;;21.73;100.00
58245;BME280;44550;43.864;25.986;2023-05-29T18:28:44;100947.22;;;21.54;100.00
58245;BME280;44550;43.864;25.986;2023-05-29T18:32:44;100937.19;;;21.63;100.00
58245;BME280;44550;43.864;25.986;2023-05-29T18:36:46;100943.59;;;21.57;100.00
58245;BME280;44550;43.864;25.986;2023-05-29T18:40:46;100945.81;;;21.44;100.00
58245;BME280;44550;43.864;25.986;2023-05-29T18:44:46;100950.94;;;21.49;100.00
58245;BME280;44550;43.864;25.986;2023-05-29T18:48:45;100958.63;;;21.58;100.00
58245;BME280;44550;43.864;25.986;2023-05-29T18:52:47;100961.03;;;21.66;100.00
58245;BME280;44550;43.864;25.986;2023-05-29T18:56:50;100968.50;;;21.79;100.00
58245;BME280;44550;43.864;25.986;2023-05-29T19:00:50;100976.81;;;21.95;100.00
58245;BME280;44550;43.864;25.986;2023-05-29T19:04:52;100977.41;;;22.03;100.00
58245;BME280;44550;43.864;25.986;2023-05-29T19:08:57;100973.75;;;22.06;100.00
58245;BME280;44550;43.864;25.986;2023-05-29T19:12:57;100986.25;;;22.04;100.00
58245;BME280;44550;43.864;25.986;2023-05-29T19:16:56;100987.09;;;22.04;100.00
58245;BME280;44550;43.864;25.986;2023-05-29T19:20:56;101000.94;;;22.16;100.00
58245;BME280;44550;43.864;25.986;2023-05-29T19:24:58;101008.53;;;22.26;100.00
58245;BME280;44550;43.864;25.986;2023-05-29T19:29:05;100997.88;;;22.26;100.00
58245;BME280;44550;43.864;25.986;2023-05-29T19:33:05;101003.09;;;22.04;100.00
58245;BME280;44550;43.864;25.986;2023-05-29T19:37:10;100998.50;;;22.08;100.00
58245;BME280;44550;43.864;25.986;2023-05-29T19:41:16;101005.84;;;22.01;100.00
58245;BME280;44550;43.864;25.986;2023-05-29T19:45:17;101010.72;;;21.90;100.00
58245;BME280;44550;43.864;25.986;2023-05-29T19:49:18;101013.50;;;21.87;100.00
58245;BME280;44550;43.864;25.986;2023-05-29T19:53:18;101017.78;;;21.66;100.00
58245;BME280;44550;43.864;25.986;2023-05-29T19:57:23;101015.91;;;21.43;100.00
58245;BME280;44550;43.864;25.986;2023-05-29T20:01:25;101012.19;;;21.21;100.00
58245;BME280;44550;43.864;25.986;2023-05-29T20:05:25;101010.25;;;20.99;100.00
58245;BME280;44550;43.864;25.986;2023-05-29T20:09:25;101008.38;;;21.01;100.00
58245;BME280;44550;43.864;25.986;2023-05-29T20:13:27;101005.78;;;21.00;100.00
58245;BME280;44550;43.864;25.986;2023-05-29T20:17:26;101008.44;;;21.00;100.00
58245;BME280;44550;43.864;25.986;2023-05-29T20:21:26;101010.47;;;20.92;100.00
58245;BME280;44550;43.864;25.986;2023-05-29T20:25:25;101008.66;;;20.92;100.00
58245;BME280;44550;43.864;25.986;2023-05-29T20:29:29;101004.28;;;20.91;100.00
58245;BME280;44550;43.864;25.986;2023-05-29T20:33:28;100993.38;;;20.99;100.00
58245;BME280;44550;43.864;25.986;2023-05-29T20:37:28;100998.22;;;21.14;100.00
58245;BME280;44550;43.864;25.986;2023-05-29T20:41:30;101002.22;;;21.27;100.00
58245;BME280;44550;43.864;25.986;2023-05-29T20:45:31;101009.94;;;21.37;100.00
58245;BME280;44550;43.864;25.986;2023-05-29T20:49:33;101008.91;;;21.41;100.00
58245;BME280;44550;43.864;25.986;2023-05-29T20:53:34;101007.53;;;21.27;100.00
58245;BME280;44550;43.864;25.986;2023-05-29T20:57:33;101002.41;;;20.95;100.00
58245;BME280;44550;43.864;25.986;2023-05-29T21:01:35;100998.47;;;20.78;100.00
58245;BME280;44550;43.864;25.986;2023-05-29T21:05:35;100994.13;;;20.76;100.00
58245;BME280;44550;43.864;25.986;2023-05-29T21:09:37;100992.78;;;20.91;100.00
58245;BME280;44550;43.864;25.986;2023-05-29T21:13:37;100994.44;;;21.21;100.00
58245;BME280;44550;43.864;25.986;2023-05-29T21:17:39;100984.88;;;21.42;100.00
58245;BME280;44550;43.864;25.986;2023-05-29T21:21:43;100977.03;;;21.11;100.00
58245;BME280;44550;43.864;25.986;2023-05-29T21:25:43;100940.78;;;20.82;100.00
58245;BME280;44550;43.864;25.986;2023-05-29T21:29:43;100968.75;;;20.94;100.00
58245;BME280;44550;43.864;25.986;2023-05-29T21:33:45;100965.44;;;20.87;100.00
58245;BME280;44550;43.864;25.986;2023-05-29T21:37:45;100958.97;;;20.68;100.00
58245;BME280;44550;43.864;25.986;2023-05-29T21:41:45;100950.50;;;20.55;100.00